Kiso — JD2019 — position and weather

sailwx.info

Track history (hours):
 
Tides and Currents Weather Stations Pressure Air Temp Water Temp Dewpoint Dewpoint Depression Visibility Wind Speed Wind Dir Waves Ship Positions

Kiso

Last reported at 2017-Oct-18 16:18 UTC. Time now 2017-Oct-18 16:38 UTC.
Position N 34°41' E 139°40'.

Length 200 m; draft 6.7 m.

Type: Passenger vessel. MMSI: 431200673.

Date/timePositionNaut miles runAvg speedWind from/ knotsBaromVisibWave heightAir tempDewpointWater temp
2017-Oct-18 16:18N 34°41' E 139°40'619.0
2017-Oct-18 16:00N 34°43' E 139°47'1519.3
2017-Oct-18 15:12N 34°52' E 140°02'420.1
2017-Oct-18 15:00N 34°54' E 140°06'  
2017-Oct-15 20:25N 34°52' E 140°07'1418.6
2017-Oct-15 19:38N 34°44' E 139°53'16 0.6
2017-Oct-14 15:49N 34°40' E 139°35'719.9
2017-Oct-14 15:29N 34°44' E 139°42'1020.6
2017-Oct-14 15:00N 34°48' E 139°52'1019.8
2017-Oct-14 14:30N 34°52' E 140°03'  
2017-Oct-11 19:51N 34°51' E 140°04'1720.9
2017-Oct-11 19:03N 34°44' E 139°46'821.1
2017-Oct-11 18:41N 34°40' E 139°37'4 0.2
2017-Oct-10 15:46N 34°42' E 139°42'621.0
2017-Oct-10 15:29N 34°45' E 139°48'1220.8
2017-Oct-10 14:53N 34°51' E 140°01'  
Track history (hours):
 
Tides and Currents Weather Stations Pressure Air Temp Water Temp Dewpoint Dewpoint Depression Visibility Wind Speed Wind Dir Waves Ship Positions

Kiso

Last reported at 2017-Oct-18 16:18 UTC. Time now 2017-Oct-18 16:38 UTC.
Position N 34°41' E 139°40'.

Length 200 m; draft 6.7 m.

Type: Passenger vessel. MMSI: 431200673.

Date/timePositionNaut miles runAvg speedWind from/ knotsBaromVisibWave heightAir tempDewpointWater temp
2017-Oct-18 16:18N 34°41' E 139°40'619.0
2017-Oct-18 16:00N 34°43' E 139°47'1519.3
2017-Oct-18 15:12N 34°52' E 140°02'420.1
2017-Oct-18 15:00N 34°54' E 140°06'  
2017-Oct-15 20:25N 34°52' E 140°07'1418.6
2017-Oct-15 19:38N 34°44' E 139°53'16 0.6
2017-Oct-14 15:49N 34°40' E 139°35'719.9
2017-Oct-14 15:29N 34°44' E 139°42'1020.6
2017-Oct-14 15:00N 34°48' E 139°52'1019.8
2017-Oct-14 14:30N 34°52' E 140°03'  
2017-Oct-11 19:51N 34°51' E 140°04'1720.9
2017-Oct-11 19:03N 34°44' E 139°46'821.1
2017-Oct-11 18:41N 34°40' E 139°37'4 0.2
2017-Oct-10 15:46N 34°42' E 139°42'621.0
2017-Oct-10 15:29N 34°45' E 139°48'1220.8
2017-Oct-10 14:53N 34°51' E 140°01'  

Dump ship's entire track history